Time;durP1;ratioP1;P1;durP2;ratioP2;P2;SDS_P1;SDS_P2;PMS_P1;PMS_P2;Temp;Humidity;BMP_temperature;BMP_pressure;BME280_temperature;BME280_humidity;BME280_pressure;Samples;Min_cycle;Max_cycle;Signal;HPM_P1;HPM_P2
2024/02/23 00:00:13;;;;;;;23.23;13.70;;;;;22.20;97740.00;;;;2053567;28;20262;-69
2024/02/23 00:01:13;;;;;;;22.10;13.63;;;;;22.20;97765.00;;;;2039216;28;20707;-69
2024/02/23 00:02:14;;;;;;;19.30;13.90;;;;;22.20;97762.00;;;;2061511;28;20273;-69
2024/02/23 00:03:14;;;;;;;18.23;12.60;;;;;22.10;97769.00;;;;2052770;28;20661;-69
2024/02/23 00:04:14;;;;;;;16.27;11.20;;;;;22.10;97766.00;;;;2053586;28;20847;-69
2024/02/23 00:05:15;;;;;;;18.97;11.40;;;;;22.10;97777.00;;;;2063717;28;20241;-69
2024/02/23 00:06:15;;;;;;;17.17;11.57;;;;;22.10;97770.00;;;;2059015;28;20245;-69
2024/02/23 00:07:15;;;;;;;15.53;10.93;;;;;22.10;97766.00;;;;2061840;28;20223;-69
2024/02/23 00:08:16;;;;;;;15.90;11.43;;;;;22.10;97782.00;;;;2069628;28;20682;-69
2024/02/23 00:09:16;;;;;;;14.60;10.10;;;;;22.10;97729.00;;;;2052016;28;20718;-69
2024/02/23 00:10:16;;;;;;;15.13;10.77;;;;;22.10;97789.00;;;;2034075;28;20258;-69
2024/02/23 00:11:17;;;;;;;13.70;10.07;;;;;22.10;97795.00;;;;2057637;28;20226;-69
2024/02/23 00:12:17;;;;;;;19.00;10.97;;;;;22.10;97787.00;;;;2069550;28;20226;-69
2024/02/23 00:13:17;;;;;;;16.77;11.37;;;;;22.10;97797.00;;;;2069835;28;20224;-69
2024/02/23 00:14:21;;;;;;;15.57;10.50;;;;;22.10;97794.00;;;;2070594;28;20211;-69
2024/02/23 00:15:21;;;;;;;16.48;10.63;;;;;22.10;97803.00;;;;2051669;28;20214;-69
2024/02/23 00:16:21;;;;;;;14.17;9.90;;;;;22.10;97804.00;;;;2059752;28;20310;-69
2024/02/23 00:17:23;;;;;;;14.87;10.30;;;;;22.10;97794.00;;;;2069406;28;20649;-69
2024/02/23 00:18:23;;;;;;;14.60;10.50;;;;;22.10;97800.00;;;;2061353;28;20222;-69
2024/02/23 00:19:24;;;;;;;14.70;9.70;;;;;22.10;97797.00;;;;2061472;28;20214;-69
2024/02/23 00:20:24;;;;;;;16.10;11.37;;;;;22.10;97806.00;;;;2050908;28;20267;-69
2024/02/23 00:21:24;;;;;;;16.20;11.20;;;;;22.10;97798.00;;;;2061699;28;20219;-69
2024/02/23 00:22:25;;;;;;;12.53;9.83;;;;;22.10;97815.00;;;;2061142;28;20223;-69
2024/02/23 00:23:26;;;;;;;15.67;10.40;;;;;22.10;97809.00;;;;2061457;28;20215;-69
2024/02/23 00:24:26;;;;;;;15.63;10.33;;;;;22.10;97820.00;;;;2070541;28;20998;-69
2024/02/23 00:25:27;;;;;;;13.83;9.50;;;;;22.10;97825.00;;;;2051439;28;20222;-69
2024/02/23 00:26:28;;;;;;;15.80;9.70;;;;;22.10;97833.00;;;;2060801;28;20219;-69
2024/02/23 00:27:29;;;;;;;14.38;9.98;;;;;22.00;97831.00;;;;2059339;28;20218;-69
2024/02/23 00:28:29;;;;;;;13.77;9.53;;;;;22.00;97837.00;;;;2068578;28;20230;-69
2024/02/23 00:29:29;;;;;;;13.80;9.20;;;;;22.00;97838.00;;;;2070103;28;20214;-69
2024/02/23 00:30:30;;;;;;;15.83;9.83;;;;;22.00;97831.00;;;;2061421;28;20221;-69
2024/02/23 00:31:30;;;;;;;12.77;8.93;;;;;22.00;97832.00;;;;2071120;28;20207;-69
2024/02/23 00:32:30;;;;;;;13.30;9.00;;;;;22.10;97837.00;;;;2072171;28;20225;-69
2024/02/23 00:33:31;;;;;;;12.40;8.03;;;;;22.00;97836.00;;;;2071217;28;20223;-69
2024/02/23 00:34:32;;;;;;;14.47;7.87;;;;;22.00;97844.00;;;;2070743;28;20229;-69
2024/02/23 00:35:32;;;;;;;11.67;8.00;;;;;22.00;97832.00;;;;2058630;28;20214;-69
2024/02/23 00:36:32;;;;;;;12.73;8.53;;;;;22.00;97839.00;;;;2071252;28;21061;-69
2024/02/23 00:37:35;;;;;;;12.33;7.97;;;;;22.00;97831.00;;;;2067793;28;20268;-69
2024/02/23 00:38:35;;;;;;;11.43;7.53;;;;;22.00;97844.00;;;;2070253;28;20222;-69
2024/02/23 00:39:37;;;;;;;13.47;8.23;;;;;22.00;97838.00;;;;2072021;28;20206;-69
2024/02/23 00:40:38;;;;;;;12.15;7.63;;;;;22.00;97846.00;;;;2059672;28;20288;-69
2024/02/23 00:41:38;;;;;;;12.50;7.70;;;;;22.00;97845.00;;;;2069819;28;20234;-69
2024/02/23 00:42:38;;;;;;;13.33;7.80;;;;;22.00;97853.00;;;;2070630;28;20221;-69
2024/02/23 00:43:39;;;;;;;9.80;7.40;;;;;22.00;97860.00;;;;2071816;28;20218;-69
2024/02/23 00:44:39;;;;;;;12.20;7.50;;;;;22.00;97716.00;;;;2071973;28;20210;-69
2024/02/23 00:45:40;;;;;;;9.23;6.67;;;;;22.00;97863.00;;;;2060931;28;20234;-69
2024/02/23 00:46:41;;;;;;;10.00;6.90;;;;;22.00;97870.00;;;;2071913;28;20686;-69
2024/02/23 00:47:43;;;;;;;10.83;7.27;;;;;22.00;97864.00;;;;2071286;28;20514;-69
2024/02/23 00:48:43;;;;;;;12.40;7.20;;;;;22.00;97879.00;;;;2071305;28;20221;-69
2024/02/23 00:49:43;;;;;;;11.57;7.73;;;;;21.80;97874.00;;;;2071386;28;20214;-69
2024/02/23 00:50:44;;;;;;;11.90;7.07;;;;;22.00;97874.00;;;;2061281;28;20345;-70
2024/02/23 00:51:44;;;;;;;11.70;7.63;;;;;22.00;97886.00;;;;2071832;28;20210;-69
2024/02/23 00:52:44;;;;;;;10.87;6.30;;;;;22.00;97886.00;;;;2070621;28;20245;-69
2024/02/23 00:53:45;;;;;;;9.83;6.77;;;;;22.00;97880.00;;;;2071809;28;20226;-69
2024/02/23 00:54:45;;;;;;;8.97;6.57;;;;;22.00;97886.00;;;;2070714;28;20301;-69
2024/02/23 00:55:45;;;;;;;9.00;6.53;;;;;22.00;97879.00;;;;2061882;28;20230;-69
2024/02/23 00:56:46;;;;;;;9.50;6.63;;;;;22.00;97884.00;;;;2071334;28;21041;-69
2024/02/23 00:57:46;;;;;;;10.57;6.63;;;;;22.00;97883.00;;;;2071394;28;20252;-69
2024/02/23 00:58:46;;;;;;;9.60;6.13;;;;;21.90;97882.00;;;;2071213;28;20785;-69
2024/02/23 00:59:47;;;;;;;8.57;5.87;;;;;22.00;97884.00;;;;2070813;28;21055;-69
2024/02/23 01:00:47;;;;;;;10.73;6.30;;;;;21.90;97892.00;;;;2061272;28;20292;-69
2024/02/23 01:01:47;;;;;;;8.30;5.70;;;;;22.00;97896.00;;;;2070891;28;20256;-70
2024/02/23 01:02:48;;;;;;;8.57;6.13;;;;;22.00;97886.00;;;;2071248;28;20276;-69
2024/02/23 01:03:48;;;;;;;8.67;5.93;;;;;22.00;97902.00;;;;2071951;28;20210;-69
2024/02/23 01:04:48;;;;;;;8.93;5.70;;;;;21.90;97896.00;;;;2065820;28;20219;-69
2024/02/23 01:05:49;;;;;;;8.87;5.80;;;;;21.90;97895.00;;;;2060866;28;20759;-69
2024/02/23 01:06:49;;;;;;;9.20;6.03;;;;;21.90;97837.00;;;;2070941;28;20601;-69
2024/02/23 01:07:49;;;;;;;10.40;6.83;;;;;21.90;97902.00;;;;2071830;28;20279;-69
2024/02/23 01:08:50;;;;;;;8.23;5.43;;;;;21.90;97902.00;;;;2071184;28;20233;-70
2024/02/23 01:09:50;;;;;;;7.27;4.90;;;;;21.90;97906.00;;;;2071192;28;20241;-70
2024/02/23 01:10:50;;;;;;;7.60;5.43;;;;;21.90;97895.00;;;;2061625;28;20264;-70
2024/02/23 01:11:51;;;;;;;7.63;5.50;;;;;21.90;97901.00;;;;2070514;28;20218;-69
2024/02/23 01:12:51;;;;;;;11.30;6.37;;;;;21.90;97900.00;;;;2071768;28;20228;-69
2024/02/23 01:13:51;;;;;;;9.10;5.70;;;;;21.90;97923.00;;;;2070802;28;20237;-69
2024/02/23 01:14:53;;;;;;;8.33;5.60;;;;;21.90;97914.00;;;;2071698;28;20218;-69
2024/02/23 01:15:53;;;;;;;8.63;5.10;;;;;21.90;97909.00;;;;2061019;28;20218;-69
2024/02/23 01:16:54;;;;;;;7.97;5.30;;;;;21.90;97911.00;;;;2060287;28;20225;-69
2024/02/23 01:17:56;;;;;;;9.00;5.60;;;;;21.90;97914.00;;;;2062252;28;20222;-69
2024/02/23 01:18:56;;;;;;;7.57;4.72;;;;;21.90;97912.00;;;;2070613;28;20880;-69
2024/02/23 01:19:56;;;;;;;7.60;5.30;;;;;21.90;97915.00;;;;2071717;28;20236;-69
2024/02/23 01:20:57;;;;;;;8.33;4.80;;;;;21.90;97913.00;;;;2051738;28;20230;-69
2024/02/23 01:22:01;;;;;;;8.90;5.67;;;;;21.90;97916.00;;;;2062295;28;20246;-69
2024/02/23 01:23:01;;;;;;;8.00;4.88;;;;;21.90;97920.00;;;;2071658;28;20695;-69
2024/02/23 01:24:01;;;;;;;7.07;4.80;;;;;21.90;97922.00;;;;2070705;28;20213;-70
2024/02/23 01:25:02;;;;;;;6.50;4.37;;;;;21.90;97919.00;;;;2062892;28;20218;-69
2024/02/23 01:26:02;;;;;;;8.70;5.87;;;;;21.90;97917.00;;;;2042688;28;20239;-69
2024/02/23 01:27:03;;;;;;;8.50;5.20;;;;;21.90;97920.00;;;;2055495;28;20212;-69
2024/02/23 01:28:03;;;;;;;6.97;4.77;;;;;21.90;97917.00;;;;2062118;28;20761;-69
2024/02/23 01:29:04;;;;;;;7.37;4.47;;;;;21.90;97925.00;;;;2062413;28;20211;-69
2024/02/23 01:30:05;;;;;;;6.60;4.30;;;;;21.80;97916.00;;;;2071660;28;20263;-69
2024/02/23 01:31:10;;;;;;;7.30;4.60;;;;;21.90;97927.00;;;;2060345;28;20221;-69
2024/02/23 01:32:10;;;;;;;7.85;4.75;;;;;21.90;97916.00;;;;2071736;28;20468;-69
2024/02/23 01:33:11;;;;;;;7.03;5.00;;;;;21.80;97927.00;;;;2062243;28;20255;-69
2024/02/23 01:34:11;;;;;;;7.07;4.87;;;;;21.90;97926.00;;;;2062081;28;20218;-69
2024/02/23 01:35:11;;;;;;;7.07;4.40;;;;;21.80;97925.00;;;;2071529;28;20215;-69
2024/02/23 01:36:12;;;;;;;8.30;4.50;;;;;21.80;97927.00;;;;2060654;28;20215;-69
2024/02/23 01:37:12;;;;;;;6.30;4.50;;;;;21.90;97935.00;;;;2071526;28;20216;-69
2024/02/23 01:38:18;;;;;;;6.27;4.13;;;;;21.80;97902.00;;;;2069881;28;20218;-69
2024/02/23 01:39:19;;;;;;;6.05;3.80;;;;;21.80;97936.00;;;;2062874;28;20222;-69
2024/02/23 01:40:19;;;;;;;6.80;4.30;;;;;21.90;97951.00;;;;2050865;28;20697;-69
2024/02/23 01:41:19;;;;;;;5.33;3.63;;;;;21.80;97950.00;;;;2067006;28;20850;-69
2024/02/23 01:42:20;;;;;;;6.20;4.07;;;;;21.80;97939.00;;;;2062240;28;20215;-69
2024/02/23 01:43:20;;;;;;;5.30;3.37;;;;;21.80;97933.00;;;;2062090;28;20254;-69
2024/02/23 01:44:21;;;;;;;6.50;3.97;;;;;21.80;97943.00;;;;2070974;28;20209;-69
2024/02/23 01:45:21;;;;;;;7.13;4.70;;;;;21.80;97942.00;;;;2060682;28;20269;-69
2024/02/23 01:46:22;;;;;;;6.17;3.60;;;;;21.80;97954.00;;;;2071448;28;20469;-69
2024/02/23 01:47:23;;;;;;;6.57;4.00;;;;;21.80;97946.00;;;;2068409;28;20239;-69
2024/02/23 01:48:23;;;;;;;6.05;3.80;;;;;21.80;97944.00;;;;2070012;28;20245;-69
2024/02/23 01:49:29;;;;;;;4.47;3.47;;;;;21.80;97861.00;;;;2071614;28;20226;-69
2024/02/23 01:50:29;;;;;;;5.35;3.55;;;;;21.80;97949.00;;;;2052159;28;20732;-69
2024/02/23 01:51:30;;;;;;;7.27;3.67;;;;;21.80;97925.00;;;;2063435;28;20230;-69
2024/02/23 01:52:30;;;;;;;6.70;4.10;;;;;21.80;97936.00;;;;2059256;28;20222;-69
2024/02/23 01:53:30;;;;;;;5.70;3.80;;;;;21.80;97939.00;;;;2062771;28;20419;-69
2024/02/23 01:54:31;;;;;;;5.27;3.50;;;;;21.80;97892.00;;;;2062637;28;20738;-69
2024/02/23 01:55:31;;;;;;;5.13;3.73;;;;;21.80;97955.00;;;;2044238;28;20267;-69
2024/02/23 01:56:32;;;;;;;5.50;3.60;;;;;21.80;97953.00;;;;2053406;28;20611;-69
2024/02/23 01:57:33;;;;;;;6.33;3.37;;;;;21.80;97947.00;;;;2045536;28;20478;-69
2024/02/23 01:58:35;;;;;;;6.30;3.35;;;;;21.80;97938.00;;;;2047037;28;20228;-69
2024/02/23 01:59:37;;;;;;;5.53;3.85;;;;;21.80;97947.00;;;;2062672;28;20214;-69
2024/02/23 02:00:37;;;;;;;4.82;2.95;;;;;21.80;97953.00;;;;2044122;28;20242;-69
2024/02/23 02:01:38;;;;;;;5.93;3.57;;;;;21.80;97927.00;;;;2060849;28;20227;-69
2024/02/23 02:02:38;;;;;;;5.40;3.30;;;;;21.80;97963.00;;;;2062229;28;20268;-69
2024/02/23 02:03:39;;;;;;;5.77;3.87;;;;;21.80;97961.00;;;;2062765;28;20721;-69
2024/02/23 02:04:39;;;;;;;5.20;3.00;;;;;21.80;97948.00;;;;2069995;28;20221;-69
2024/02/23 02:05:40;;;;;;;4.80;2.97;;;;;21.80;97945.00;;;;2060009;28;20636;-69
2024/02/23 02:06:40;;;;;;;4.60;3.00;;;;;21.80;97957.00;;;;2065527;28;20632;-70
2024/02/23 02:07:41;;;;;;;4.70;3.40;;;;;21.80;97942.00;;;;2056668;28;20232;-69
2024/02/23 02:08:41;;;;;;;5.57;3.38;;;;;21.80;97960.00;;;;2059406;28;20257;-69
2024/02/23 02:09:42;;;;;;;3.77;2.80;;;;;21.80;97948.00;;;;2069702;28;20678;-69
2024/02/23 02:10:43;;;;;;;5.37;3.30;;;;;21.80;97963.00;;;;2060528;28;20602;-69
2024/02/23 02:11:49;;;;;;;5.10;3.33;;;;;21.80;97886.00;;;;2071068;28;20702;-69
2024/02/23 02:12:49;;;;;;;4.72;3.13;;;;;21.80;97960.00;;;;2070021;28;20626;-69
2024/02/23 02:13:50;;;;;;;5.30;3.30;;;;;21.80;97911.00;;;;2071425;28;20234;-69
2024/02/23 02:14:50;;;;;;;4.83;3.27;;;;;21.80;97967.00;;;;2069817;28;20221;-69
2024/02/23 02:15:50;;;;;;;5.00;2.97;;;;;21.70;97964.00;;;;2050775;28;20230;-69
2024/02/23 02:16:51;;;;;;;4.40;2.73;;;;;21.70;97964.00;;;;2060635;28;20253;-69
2024/02/23 02:17:51;;;;;;;4.40;2.70;;;;;21.70;97964.00;;;;2069416;28;20214;-69
2024/02/23 02:18:51;;;;;;;4.33;2.90;;;;;21.70;97963.00;;;;2070675;28;20206;-69
2024/02/23 02:19:52;;;;;;;4.63;3.10;;;;;21.70;97977.00;;;;2069285;28;20217;-69
2024/02/23 02:20:54;;;;;;;4.43;2.80;;;;;21.70;97972.00;;;;2061175;28;20257;-69
2024/02/23 02:21:54;;;;;;;4.60;3.00;;;;;21.70;97968.00;;;;2070234;28;20218;-69
2024/02/23 02:22:54;;;;;;;4.67;3.00;;;;;21.70;97958.00;;;;2060991;28;20650;-69
2024/02/23 02:23:56;;;;;;;4.33;2.80;;;;;21.70;97965.00;;;;2054213;28;20220;-69
2024/02/23 02:24:56;;;;;;;4.80;2.80;;;;;21.70;97967.00;;;;2060310;28;20285;-69
2024/02/23 02:25:57;;;;;;;6.70;4.03;;;;;21.70;97976.00;;;;2061356;28;20306;-69
2024/02/23 02:26:57;;;;;;;4.60;2.70;;;;;21.70;97978.00;;;;2069452;28;20214;-69
2024/02/23 02:27:58;;;;;;;4.57;2.63;;;;;21.70;97976.00;;;;2069325;28;20247;-69
2024/02/23 02:28:58;;;;;;;5.20;2.97;;;;;21.70;97970.00;;;;2071049;28;20224;-69
2024/02/23 02:29:58;;;;;;;3.60;2.30;;;;;21.70;97977.00;;;;2070443;28;20225;-69
2024/02/23 02:30:59;;;;;;;4.83;2.80;;;;;21.70;97970.00;;;;2061181;28;20222;-69
2024/02/23 02:31:59;;;;;;;3.80;2.23;;;;;21.70;97972.00;;;;2070641;28;20258;-69
2024/02/23 02:33:00;;;;;;;5.10;3.20;;;;;21.70;97972.00;;;;2061391;28;20223;-69
2024/02/23 02:34:00;;;;;;;3.87;2.50;;;;;21.70;97980.00;;;;2062250;28;20233;-69
2024/02/23 02:35:00;;;;;;;3.00;1.80;;;;;21.70;97974.00;;;;2069871;28;20218;-69
2024/02/23 02:36:00;;;;;;;5.17;2.50;;;;;21.70;97981.00;;;;2060775;28;20225;-69
2024/02/23 02:37:01;;;;;;;4.10;2.40;;;;;21.70;97979.00;;;;2069942;28;20224;-69
2024/02/23 02:38:01;;;;;;;3.57;2.27;;;;;21.70;97981.00;;;;2067932;28;20211;-69
2024/02/23 02:39:04;;;;;;;3.80;2.13;;;;;21.70;97935.00;;;;2068598;28;20245;-69
2024/02/23 02:40:05;;;;;;;4.30;1.98;;;;;21.70;97993.00;;;;2069307;28;20228;-69
2024/02/23 02:41:06;;;;;;;4.53;2.30;;;;;21.70;97986.00;;;;2059237;28;20670;-69
2024/02/23 02:42:06;;;;;;;4.67;2.53;;;;;21.70;97986.00;;;;2061287;28;20573;-69
2024/02/23 02:43:07;;;;;;;4.10;2.40;;;;;21.70;97999.00;;;;2062203;28;20214;-69
2024/02/23 02:44:09;;;;;;;3.93;2.00;;;;;21.70;97989.00;;;;2061091;28;20219;-69
2024/02/23 02:45:09;;;;;;;4.60;2.28;;;;;21.70;97993.00;;;;2062344;28;20222;-69
2024/02/23 02:46:10;;;;;;;4.40;2.20;;;;;21.70;97998.00;;;;2061078;28;20220;-69
2024/02/23 02:47:10;;;;;;;4.57;2.57;;;;;21.70;97989.00;;;;2066789;28;20218;-69
2024/02/23 02:48:10;;;;;;;3.63;2.10;;;;;21.70;97996.00;;;;2070540;28;20222;-69
2024/02/23 02:49:10;;;;;;;3.60;2.30;;;;;21.70;97868.00;;;;2069481;28;20243;-69
2024/02/23 02:50:11;;;;;;;3.50;2.20;;;;;21.70;98001.00;;;;2063011;28;20272;-69
2024/02/23 02:51:11;;;;;;;4.43;2.17;;;;;21.70;97995.00;;;;2052414;28;20257;-69
2024/02/23 02:52:12;;;;;;;3.90;2.10;;;;;21.60;98004.00;;;;2059840;28;20222;-69
2024/02/23 02:53:12;;;;;;;5.50;2.50;;;;;21.60;98004.00;;;;2070680;28;20214;-69
2024/02/23 02:54:12;;;;;;;4.83;2.07;;;;;21.70;97977.00;;;;2069842;28;20621;-69
2024/02/23 02:55:15;;;;;;;3.80;2.10;;;;;21.70;98027.00;;;;2062287;28;20222;-69
2024/02/23 02:56:16;;;;;;;4.10;2.17;;;;;21.70;98018.00;;;;2058176;28;20242;-69
2024/02/23 02:57:16;;;;;;;3.53;2.17;;;;;21.70;97982.00;;;;2056245;28;20692;-69
2024/02/23 02:58:16;;;;;;;3.90;2.13;;;;;21.70;98013.00;;;;2053719;28;20220;-69
2024/02/23 02:59:18;;;;;;;5.13;1.83;;;;;21.70;98024.00;;;;2061802;28;20221;-69
2024/02/23 03:00:18;;;;;;;3.70;1.90;;;;;21.60;98027.00;;;;2052359;28;20705;-69
2024/02/23 03:01:18;;;;;;;4.77;1.87;;;;;21.70;98037.00;;;;2063461;28;20218;-69
2024/02/23 03:02:19;;;;;;;5.87;2.33;;;;;21.70;98023.00;;;;2071010;28;20252;-69
2024/02/23 03:03:19;;;;;;;3.13;2.07;;;;;21.60;97986.00;;;;2070287;28;20993;-69
2024/02/23 03:04:20;;;;;;;4.47;2.40;;;;;21.60;98021.00;;;;2070070;28;20218;-69
2024/02/23 03:05:20;;;;;;;3.80;2.23;;;;;21.60;98031.00;;;;2060976;28;20660;-69
2024/02/23 03:06:20;;;;;;;3.10;1.80;;;;;21.60;98034.00;;;;2059042;28;20219;-69
2024/02/23 03:07:21;;;;;;;3.40;1.73;;;;;21.60;98028.00;;;;2062155;28;20262;-69
2024/02/23 03:08:21;;;;;;;3.87;2.00;;;;;21.60;98029.00;;;;2069868;28;20253;-69
2024/02/23 03:09:21;;;;;;;3.97;1.80;;;;;21.60;98031.00;;;;2071027;28;20218;-69
2024/02/23 03:10:22;;;;;;;3.83;1.40;;;;;21.60;98022.00;;;;2060759;28;20221;-69
2024/02/23 03:11:22;;;;;;;3.60;1.67;;;;;21.50;98026.00;;;;2070238;28;20228;-69
2024/02/23 03:12:22;;;;;;;3.23;1.67;;;;;21.60;98038.00;;;;2070739;28;20226;-69
2024/02/23 03:13:23;;;;;;;3.20;1.73;;;;;21.60;98030.00;;;;2069918;28;20221;-69
2024/02/23 03:14:23;;;;;;;3.63;1.43;;;;;21.60;98026.00;;;;2070783;28;20226;-69
2024/02/23 03:15:23;;;;;;;3.20;1.50;;;;;21.60;98026.00;;;;2060387;28;20232;-69
2024/02/23 03:16:25;;;;;;;3.60;1.90;;;;;21.60;98036.00;;;;2069772;28;20222;-69
2024/02/23 03:17:26;;;;;;;3.45;1.88;;;;;21.60;98036.00;;;;2070718;28;20218;-69
2024/02/23 03:18:29;;;;;;;3.30;1.63;;;;;21.60;98038.00;;;;2067319;28;20218;-69
2024/02/23 03:19:29;;;;;;;3.63;1.70;;;;;21.60;98050.00;;;;2070317;28;20289;-69
2024/02/23 03:20:30;;;;;;;2.63;1.87;;;;;21.60;98043.00;;;;2059034;28;20210;-69
2024/02/23 03:21:30;;;;;;;4.00;1.90;;;;;21.60;98043.00;;;;2069542;28;20221;-69
2024/02/23 03:22:31;;;;;;;2.83;1.33;;;;;21.60;98038.00;;;;2067155;28;20214;-69
2024/02/23 03:23:31;;;;;;;3.10;1.60;;;;;21.60;98041.00;;;;2069555;28;20210;-69
2024/02/23 03:24:31;;;;;;;2.50;1.40;;;;;21.60;98012.00;;;;2062261;28;21214;-69
2024/02/23 03:25:32;;;;;;;3.27;1.23;;;;;21.60;98043.00;;;;2050111;28;21229;-69
2024/02/23 03:26:32;;;;;;;2.87;1.50;;;;;21.60;98049.00;;;;2070407;28;20225;-69
2024/02/23 03:27:32;;;;;;;2.93;1.50;;;;;21.60;98045.00;;;;2069438;28;20226;-69
2024/02/23 03:28:33;;;;;;;2.70;1.00;;;;;21.60;98056.00;;;;2070461;28;20360;-69
2024/02/23 03:29:33;;;;;;;3.23;1.80;;;;;21.60;98050.00;;;;2071010;28;20221;-69
2024/02/23 03:30:33;;;;;;;4.00;1.80;;;;;21.60;98045.00;;;;2060037;28;22060;-69
2024/02/23 03:31:34;;;;;;;2.90;1.30;;;;;21.60;98022.00;;;;2071005;28;20237;-69
2024/02/23 03:32:38;;;;;;;3.90;1.60;;;;;21.60;98045.00;;;;2068156;28;20237;-69
2024/02/23 03:33:38;;;;;;;3.03;1.50;;;;;21.60;98043.00;;;;2070924;28;20698;-69
2024/02/23 03:34:39;;;;;;;2.60;1.37;;;;;21.60;97908.00;;;;2062165;28;20277;-70
2024/02/23 03:35:39;;;;;;;3.23;1.17;;;;;21.60;98035.00;;;;2051768;28;20223;-69
2024/02/23 03:36:39;;;;;;;2.63;1.10;;;;;21.60;98056.00;;;;2071034;28;20261;-69
2024/02/23 03:37:40;;;;;;;2.70;1.40;;;;;21.60;98046.00;;;;2069969;28;20222;-69
2024/02/23 03:38:40;;;;;;;1.93;0.90;;;;;21.60;98047.00;;;;2070617;28;20222;-69
2024/02/23 03:39:40;;;;;;;2.87;1.37;;;;;21.60;98051.00;;;;2070707;28;20214;-69
2024/02/23 03:40:41;;;;;;;3.00;1.13;;;;;21.60;98053.00;;;;2056564;28;20306;-69
2024/02/23 03:41:41;;;;;;;2.27;1.10;;;;;21.60;98058.00;;;;2070973;28;20257;-70
2024/02/23 03:42:42;;;;;;;3.27;1.50;;;;;21.60;98048.00;;;;2069577;28;20222;-69
2024/02/23 03:43:42;;;;;;;2.97;1.57;;;;;21.50;98045.00;;;;2071058;28;20221;-69
2024/02/23 03:44:42;;;;;;;2.63;1.50;;;;;21.60;98052.00;;;;2061319;28;20214;-69
2024/02/23 03:45:43;;;;;;;2.87;1.27;;;;;21.50;97993.00;;;;2051669;28;20231;-69
2024/02/23 03:46:43;;;;;;;2.47;1.17;;;;;21.50;98056.00;;;;2068879;28;20647;-69
2024/02/23 03:47:43;;;;;;;3.37;1.50;;;;;21.50;98048.00;;;;2069843;28;20248;-69
2024/02/23 03:48:44;;;;;;;2.70;1.20;;;;;21.50;98067.00;;;;2070042;28;20229;-69
2024/02/23 03:49:44;;;;;;;3.10;1.57;;;;;21.60;98051.00;;;;2069972;28;20431;-69
2024/02/23 03:50:45;;;;;;;3.40;1.10;;;;;21.60;98037.00;;;;2060452;28;20317;-69
2024/02/23 03:51:46;;;;;;;2.35;1.13;;;;;21.50;98051.00;;;;2069909;28;20271;-69
2024/02/23 03:52:46;;;;;;;2.20;1.03;;;;;21.50;98048.00;;;;2070408;28;20214;-69
2024/02/23 03:53:46;;;;;;;3.00;1.00;;;;;21.50;98059.00;;;;2068210;28;20706;-69
2024/02/23 03:54:47;;;;;;;3.00;1.57;;;;;21.50;98051.00;;;;2069546;28;20218;-69
2024/02/23 03:55:47;;;;;;;3.07;1.23;;;;;21.50;98024.00;;;;2060875;28;20218;-69
2024/02/23 03:56:47;;;;;;;2.97;1.40;;;;;21.50;98048.00;;;;2070093;28;20225;-69
2024/02/23 03:57:48;;;;;;;2.30;1.10;;;;;21.50;98055.00;;;;2070689;28;20246;-69
2024/02/23 03:58:48;;;;;;;3.07;1.37;;;;;21.50;98048.00;;;;2069781;28;20233;-69
2024/02/23 03:59:53;;;;;;;2.80;1.30;;;;;21.50;98056.00;;;;2070101;28;20213;-69
2024/02/23 04:00:53;;;;;;;2.83;1.40;;;;;21.50;98056.00;;;;2052214;28;20258;-69
2024/02/23 04:01:54;;;;;;;3.43;1.40;;;;;21.50;98058.00;;;;2053795;28;20730;-69
2024/02/23 04:02:54;;;;;;;2.47;1.30;;;;;21.50;98057.00;;;;2054180;28;20634;-69
2024/02/23 04:03:54;;;;;;;3.40;1.20;;;;;21.50;98061.00;;;;2061695;28;20452;-69
2024/02/23 04:04:55;;;;;;;2.33;1.03;;;;;21.50;98062.00;;;;2070076;28;20210;-69
2024/02/23 04:05:55;;;;;;;2.27;1.23;;;;;21.50;98063.00;;;;2061538;28;20566;-69
2024/02/23 04:06:55;;;;;;;2.87;1.10;;;;;21.50;98058.00;;;;2071681;28;20249;-69
2024/02/23 04:07:56;;;;;;;2.77;0.83;;;;;21.50;98065.00;;;;2062749;28;20753;-69
2024/02/23 04:08:56;;;;;;;2.40;1.20;;;;;21.50;98064.00;;;;2063250;28;20706;-69
2024/02/23 04:09:56;;;;;;;2.30;1.07;;;;;21.50;98059.00;;;;2063465;28;20214;-69
2024/02/23 04:10:57;;;;;;;2.50;1.20;;;;;21.50;98059.00;;;;2044383;28;20249;-69
2024/02/23 04:11:57;;;;;;;2.90;1.30;;;;;21.50;98055.00;;;;2062486;28;20244;-69
2024/02/23 04:12:58;;;;;;;2.73;1.03;;;;;21.50;98068.00;;;;2072340;28;20294;-69
2024/02/23 04:13:58;;;;;;;2.87;1.20;;;;;21.50;98072.00;;;;2071130;28;20211;-69
2024/02/23 04:14:59;;;;;;;2.73;1.30;;;;;21.50;98071.00;;;;2072496;28;20228;-69
2024/02/23 04:16:01;;;;;;;1.97;0.73;;;;;21.50;98068.00;;;;2051458;28;20235;-69
2024/02/23 04:17:01;;;;;;;4.72;1.15;;;;;21.50;98012.00;;;;2055163;28;20219;-69
2024/02/23 04:18:02;;;;;;;2.10;0.87;;;;;21.50;98062.00;;;;2054753;28;20700;-69
2024/02/23 04:19:02;;;;;;;2.60;1.30;;;;;21.50;98076.00;;;;2061534;28;20233;-69
2024/02/23 04:20:06;;;;;;;1.50;0.67;;;;;21.50;98068.00;;;;2072105;28;20221;-69
2024/02/23 04:21:06;;;;;;;2.22;0.70;;;;;21.50;98070.00;;;;2059929;28;20272;-69
2024/02/23 04:22:09;;;;;;;3.23;1.20;;;;;21.50;98064.00;;;;2071553;28;20256;-69
2024/02/23 04:23:10;;;;;;;3.28;1.05;;;;;21.50;98074.00;;;;2071195;28;20257;-69
2024/02/23 04:24:10;;;;;;;2.67;1.20;;;;;21.50;98069.00;;;;2069929;28;20218;-69
2024/02/23 04:25:10;;;;;;;2.43;1.00;;;;;21.50;98087.00;;;;2069143;28;20225;-69
2024/02/23 04:26:11;;;;;;;2.40;1.03;;;;;21.50;98067.00;;;;2060937;28;20308;-69
2024/02/23 04:27:11;;;;;;;2.53;1.00;;;;;21.50;98065.00;;;;2059824;28;20699;-69
2024/02/23 04:28:12;;;;;;;4.20;1.10;;;;;21.50;98086.00;;;;2052184;28;20302;-69
2024/02/23 04:29:12;;;;;;;2.53;1.10;;;;;21.50;98082.00;;;;2060792;28;20281;-69
2024/02/23 04:30:12;;;;;;;3.10;1.20;;;;;21.50;98071.00;;;;2071647;28;20245;-69
2024/02/23 04:31:13;;;;;;;2.60;0.83;;;;;21.50;98079.00;;;;2060877;28;20292;-69
2024/02/23 04:32:13;;;;;;;2.73;1.10;;;;;21.50;98079.00;;;;2071509;28;20226;-69
2024/02/23 04:33:13;;;;;;;1.73;0.70;;;;;21.50;98017.00;;;;2067425;28;20284;-69
2024/02/23 04:34:15;;;;;;;2.60;1.10;;;;;21.40;98081.00;;;;2055343;28;20231;-69
2024/02/23 04:35:15;;;;;;;2.42;0.95;;;;;21.40;98094.00;;;;2044983;28;20232;-69
2024/02/23 04:36:19;;;;;;;2.00;0.90;;;;;21.50;98096.00;;;;2041918;28;20232;-69
2024/02/23 04:37:19;;;;;;;2.42;0.80;;;;;21.40;98082.00;;;;2055381;28;20243;-69
2024/02/23 04:38:19;;;;;;;2.40;0.97;;;;;21.50;98089.00;;;;2061974;28;20218;-69
2024/02/23 04:39:20;;;;;;;3.20;0.87;;;;;21.50;98087.00;;;;2063314;28;20222;-69
2024/02/23 04:40:20;;;;;;;3.20;1.10;;;;;21.40;98088.00;;;;2060515;28;20237;-69
2024/02/23 04:41:24;;;;;;;2.20;0.90;;;;;21.40;98095.00;;;;2071717;28;20217;-69
2024/02/23 04:42:24;;;;;;;3.70;1.00;;;;;21.40;98094.00;;;;2070190;28;20214;-69
2024/02/23 04:43:25;;;;;;;2.80;1.03;;;;;21.40;98096.00;;;;2068326;28;20218;-69
2024/02/23 04:44:25;;;;;;;2.47;0.90;;;;;21.40;98095.00;;;;2063202;28;20223;-69
2024/02/23 04:45:25;;;;;;;2.30;0.90;;;;;21.40;98091.00;;;;2044113;28;20243;-69
2024/02/23 04:46:26;;;;;;;2.13;0.97;;;;;21.40;98094.00;;;;2063074;28;20217;-69
2024/02/23 04:47:26;;;;;;;2.10;0.80;;;;;21.30;98093.00;;;;2064623;28;20215;-69
2024/02/23 04:48:27;;;;;;;2.20;0.90;;;;;21.40;98101.00;;;;2070286;28;20573;-69
2024/02/23 04:49:27;;;;;;;2.63;0.90;;;;;21.40;98102.00;;;;2071963;28;20253;-69
2024/02/23 04:50:27;;;;;;;3.20;0.90;;;;;21.40;98094.00;;;;2050294;28;20239;-69
2024/02/23 04:51:28;;;;;;;2.00;0.93;;;;;21.40;98102.00;;;;2063221;28;20265;-69
2024/02/23 04:52:28;;;;;;;2.20;0.90;;;;;21.40;98096.00;;;;2071141;28;20210;-69
2024/02/23 04:53:28;;;;;;;1.70;0.70;;;;;21.40;98103.00;;;;2070688;28;20226;-69
2024/02/23 04:54:29;;;;;;;2.47;1.03;;;;;21.40;98108.00;;;;2071254;28;20233;-69
2024/02/23 04:55:29;;;;;;;2.73;1.00;;;;;21.40;98100.00;;;;2061169;28;20563;-69
2024/02/23 04:56:29;;;;;;;2.17;0.77;;;;;21.40;98104.00;;;;2071722;28;20679;-69
2024/02/23 04:57:31;;;;;;;2.73;0.87;;;;;21.40;98102.00;;;;2071575;28;20686;-69
2024/02/23 04:58:31;;;;;;;1.70;0.70;;;;;21.40;98108.00;;;;2069490;28;20282;-69
2024/02/23 04:59:32;;;;;;;2.77;0.83;;;;;21.40;98116.00;;;;2071819;28;20634;-69
2024/02/23 05:00:33;;;;;;;2.10;0.90;;;;;21.40;98107.00;;;;2061120;28;20549;-69
2024/02/23 05:01:37;;;;;;;2.67;0.97;;;;;21.40;98018.00;;;;2071964;28;20260;-69
2024/02/23 05:02:37;;;;;;;2.00;0.77;;;;;21.40;98112.00;;;;2068614;28;20556;-69